sensor_id;sensor_type;location;lat;lon;timestamp;pressure;altitude;pressure_sealevel;temperature;humidity
32642;BME280;19323;56.072;9.698;2023-03-01T00:00:54;102401.59;;;26.43;35.97
32642;BME280;19323;56.072;9.698;2023-03-01T00:03:19;102405.16;;;26.44;36.22
32642;BME280;19323;56.072;9.698;2023-03-01T00:05:45;102406.00;;;26.44;36.20
32642;BME280;19323;56.072;9.698;2023-03-01T00:08:10;102405.16;;;26.44;36.19
32642;BME280;19323;56.072;9.698;2023-03-01T00:10:35;102399.91;;;26.42;35.86
32642;BME280;19323;56.072;9.698;2023-03-01T00:13:00;102399.06;;;26.42;36.06
32642;BME280;19323;56.072;9.698;2023-03-01T00:15:26;102397.22;;;26.42;35.82
32642;BME280;19323;56.072;9.698;2023-03-01T00:17:51;102400.88;;;26.41;36.23
32642;BME280;19323;56.072;9.698;2023-03-01T00:20:16;102396.50;;;26.40;36.21
32642;BME280;19323;56.072;9.698;2023-03-01T00:22:41;102400.16;;;26.39;35.81
32642;BME280;19323;56.072;9.698;2023-03-01T00:25:06;102409.91;;;26.40;35.81
32642;BME280;19323;56.072;9.698;2023-03-01T00:27:32;102410.91;;;26.39;36.07
32642;BME280;19323;56.072;9.698;2023-03-01T00:29:57;102401.13;;;26.38;36.02
32642;BME280;19323;56.072;9.698;2023-03-01T00:32:22;102402.84;;;26.39;35.83
32642;BME280;19323;56.072;9.698;2023-03-01T00:34:47;102401.13;;;26.38;35.85
32642;BME280;19323;56.072;9.698;2023-03-01T00:37:22;102405.66;;;26.38;35.83
32642;BME280;19323;56.072;9.698;2023-03-01T00:39:48;102404.94;;;26.36;36.25
32642;BME280;19323;56.072;9.698;2023-03-01T00:42:13;102396.88;;;26.36;36.12
32642;BME280;19323;56.072;9.698;2023-03-01T00:44:39;102391.50;;;26.36;35.80
32642;BME280;19323;56.072;9.698;2023-03-01T00:47:04;102395.03;;;26.36;35.91
32642;BME280;19323;56.072;9.698;2023-03-01T00:49:29;102394.28;;;26.34;35.72
32642;BME280;19323;56.072;9.698;2023-03-01T00:51:54;102397.97;;;26.33;35.92
32642;BME280;19323;56.072;9.698;2023-03-01T00:54:19;102395.28;;;26.33;35.79
32642;BME280;19323;56.072;9.698;2023-03-01T00:56:45;102392.59;;;26.33;36.01
32642;BME280;19323;56.072;9.698;2023-03-01T00:59:10;102393.56;;;26.32;36.19
32642;BME280;19323;56.072;9.698;2023-03-01T01:01:35;102388.34;;;26.30;36.15
32642;BME280;19323;56.072;9.698;2023-03-01T01:04:02;102384.78;;;26.30;36.04
32642;BME280;19323;56.072;9.698;2023-03-01T01:06:29;102396.25;;;26.32;36.13
32642;BME280;19323;56.072;9.698;2023-03-01T01:08:55;102391.88;;;26.31;35.79
32642;BME280;19323;56.072;9.698;2023-03-01T01:11:21;102391.13;;;26.29;35.73
32642;BME280;19323;56.072;9.698;2023-03-01T01:13:47;102393.81;;;26.29;36.12
32642;BME280;19323;56.072;9.698;2023-03-01T01:16:12;102394.78;;;26.28;35.77
32642;BME280;19323;56.072;9.698;2023-03-01T01:18:38;102394.78;;;26.28;36.13
32642;BME280;19323;56.072;9.698;2023-03-01T01:21:04;102385.03;;;26.27;36.00
32642;BME280;19323;56.072;9.698;2023-03-01T01:23:30;102387.72;;;26.27;36.03
32642;BME280;19323;56.072;9.698;2023-03-01T01:25:55;102396.63;;;26.27;36.17
32642;BME280;19323;56.072;9.698;2023-03-01T01:28:20;102393.09;;;26.27;36.15
32642;BME280;19323;56.072;9.698;2023-03-01T01:30:45;102386.00;;;26.26;36.04
32642;BME280;19323;56.072;9.698;2023-03-01T01:33:10;102386.88;;;26.26;36.01
32642;BME280;19323;56.072;9.698;2023-03-01T01:35:36;102387.00;;;26.25;36.14
32642;BME280;19323;56.072;9.698;2023-03-01T01:38:01;102383.56;;;26.23;35.89
32642;BME280;19323;56.072;9.698;2023-03-01T01:40:26;102386.25;;;26.23;36.25
32642;BME280;19323;56.072;9.698;2023-03-01T01:42:51;102390.78;;;26.22;36.10
32642;BME280;19323;56.072;9.698;2023-03-01T01:47:54;102389.94;;;26.22;35.85
32642;BME280;19323;56.072;9.698;2023-03-01T01:50:20;102388.22;;;26.21;36.01
32642;BME280;19323;56.072;9.698;2023-03-01T01:52:46;102391.00;;;26.19;35.71
32642;BME280;19323;56.072;9.698;2023-03-01T01:55:20;102386.53;;;26.20;36.21
32642;BME280;19323;56.072;9.698;2023-03-01T01:57:51;102385.66;;;26.19;35.89
32642;BME280;19323;56.072;9.698;2023-03-01T02:00:22;102383.09;;;26.18;36.04
32642;BME280;19323;56.072;9.698;2023-03-01T02:02:48;102374.06;;;26.19;36.13
32642;BME280;19323;56.072;9.698;2023-03-01T02:05:19;102366.00;;;26.19;36.08
32642;BME280;19323;56.072;9.698;2023-03-01T02:07:47;102362.47;;;26.18;35.96
32642;BME280;19323;56.072;9.698;2023-03-01T02:10:13;102369.69;;;26.18;36.10
32642;BME280;19323;56.072;9.698;2023-03-01T02:12:38;102376.00;;;26.17;36.12
32642;BME280;19323;56.072;9.698;2023-03-01T02:15:04;102364.53;;;26.15;35.90
32642;BME280;19323;56.072;9.698;2023-03-01T02:17:30;102365.41;;;26.15;36.08
32642;BME280;19323;56.072;9.698;2023-03-01T02:20:11;102350.25;;;26.14;35.84
32642;BME280;19323;56.072;9.698;2023-03-01T02:22:40;102353.06;;;26.13;35.81
32642;BME280;19323;56.072;9.698;2023-03-01T02:27:36;102357.59;;;26.12;36.12
32642;BME280;19323;56.072;9.698;2023-03-01T02:30:03;102355.00;;;26.10;35.89
32642;BME280;19323;56.072;9.698;2023-03-01T02:32:28;102356.84;;;26.10;35.95
32642;BME280;19323;56.072;9.698;2023-03-01T02:34:54;102358.69;;;26.09;36.18
32642;BME280;19323;56.072;9.698;2023-03-01T02:37:20;102359.53;;;26.10;35.75
32642;BME280;19323;56.072;9.698;2023-03-01T02:39:50;102351.59;;;26.08;35.82
32642;BME280;19323;56.072;9.698;2023-03-01T02:42:18;102354.28;;;26.08;35.90
32642;BME280;19323;56.072;9.698;2023-03-01T02:44:45;102352.47;;;26.09;36.16
32642;BME280;19323;56.072;9.698;2023-03-01T02:47:10;102349.06;;;26.07;36.10
32642;BME280;19323;56.072;9.698;2023-03-01T02:49:36;102354.44;;;26.07;36.09
32642;BME280;19323;56.072;9.698;2023-03-01T02:52:05;102348.22;;;26.06;35.79
32642;BME280;19323;56.072;9.698;2023-03-01T02:54:36;102341.97;;;26.06;36.04
32642;BME280;19323;56.072;9.698;2023-03-01T02:57:04;102344.78;;;26.04;36.09
32642;BME280;19323;56.072;9.698;2023-03-01T02:59:30;102348.44;;;26.03;35.71
32642;BME280;19323;56.072;9.698;2023-03-01T03:01:56;102344.06;;;26.02;36.13
32642;BME280;19323;56.072;9.698;2023-03-01T03:04:21;102346.75;;;26.02;35.98
32642;BME280;19323;56.072;9.698;2023-03-01T03:06:47;102347.72;;;26.01;36.00
32642;BME280;19323;56.072;9.698;2023-03-01T03:09:12;102351.38;;;26.00;35.84
32642;BME280;19323;56.072;9.698;2023-03-01T03:11:38;102340.66;;;26.00;35.97
32642;BME280;19323;56.072;9.698;2023-03-01T03:14:05;102342.47;;;26.00;35.98
32642;BME280;19323;56.072;9.698;2023-03-01T03:16:33;102335.38;;;25.99;36.04
32642;BME280;19323;56.072;9.698;2023-03-01T03:18:58;102335.38;;;25.99;35.98
32642;BME280;19323;56.072;9.698;2023-03-01T03:21:29;102336.38;;;25.98;35.89
32642;BME280;19323;56.072;9.698;2023-03-01T03:23:55;102336.38;;;25.98;35.77
32642;BME280;19323;56.072;9.698;2023-03-01T03:26:20;102326.50;;;25.98;35.92
32642;BME280;19323;56.072;9.698;2023-03-01T03:28:45;102322.97;;;25.98;35.96
32642;BME280;19323;56.072;9.698;2023-03-01T03:31:11;102321.13;;;25.98;36.01
32642;BME280;19323;56.072;9.698;2023-03-01T03:33:36;102322.09;;;25.97;35.69
32642;BME280;19323;56.072;9.698;2023-03-01T03:36:02;102329.28;;;25.97;35.66
32642;BME280;19323;56.072;9.698;2023-03-01T03:38:27;102323.19;;;25.95;35.97
32642;BME280;19323;56.072;9.698;2023-03-01T03:41:03;102320.50;;;25.95;36.01
32642;BME280;19323;56.072;9.698;2023-03-01T03:43:29;102311.59;;;25.94;35.86
32642;BME280;19323;56.072;9.698;2023-03-01T03:45:54;102308.91;;;25.94;35.78
32642;BME280;19323;56.072;9.698;2023-03-01T03:48:22;102290.97;;;25.83;35.58
32642;BME280;19323;56.072;9.698;2023-03-01T03:50:48;102306.34;;;25.93;35.93
32642;BME280;19323;56.072;9.698;2023-03-01T03:53:14;102302.81;;;25.92;35.62
32642;BME280;19323;56.072;9.698;2023-03-01T03:55:39;102294.88;;;25.90;35.71
32642;BME280;19323;56.072;9.698;2023-03-01T03:58:06;102299.41;;;25.90;35.80
32642;BME280;19323;56.072;9.698;2023-03-01T04:00:32;102290.50;;;25.89;35.65
32642;BME280;19323;56.072;9.698;2023-03-01T04:02:58;102293.31;;;25.88;35.90
32642;BME280;19323;56.072;9.698;2023-03-01T04:05:23;102305.00;;;25.87;35.71
32642;BME280;19323;56.072;9.698;2023-03-01T04:07:48;102297.78;;;25.87;35.48
32642;BME280;19323;56.072;9.698;2023-03-01T04:10:15;102297.91;;;25.86;35.80
32642;BME280;19323;56.072;9.698;2023-03-01T04:12:41;102296.06;;;25.86;35.74
32642;BME280;19323;56.072;9.698;2023-03-01T04:15:08;102303.28;;;25.86;35.80
32642;BME280;19323;56.072;9.698;2023-03-01T04:17:40;102301.59;;;25.85;35.75
32642;BME280;19323;56.072;9.698;2023-03-01T04:20:06;102301.59;;;25.85;35.87
32642;BME280;19323;56.072;9.698;2023-03-01T04:22:31;102306.06;;;25.84;35.66
32642;BME280;19323;56.072;9.698;2023-03-01T04:24:58;102312.44;;;25.83;35.77
32642;BME280;19323;56.072;9.698;2023-03-01T04:27:31;102302.81;;;25.81;35.62
32642;BME280;19323;56.072;9.698;2023-03-01T04:29:56;102310.00;;;25.80;35.68
32642;BME280;19323;56.072;9.698;2023-03-01T04:32:21;102310.84;;;25.81;35.85
32642;BME280;19323;56.072;9.698;2023-03-01T04:34:46;102309.03;;;25.81;35.85
32642;BME280;19323;56.072;9.698;2023-03-01T04:37:12;102310.84;;;25.81;35.66
32642;BME280;19323;56.072;9.698;2023-03-01T04:39:37;102303.78;;;25.80;35.63
32642;BME280;19323;56.072;9.698;2023-03-01T04:42:10;102304.66;;;25.80;35.92
32642;BME280;19323;56.072;9.698;2023-03-01T04:44:35;102310.84;;;25.81;35.55
32642;BME280;19323;56.072;9.698;2023-03-01T04:47:00;102302.81;;;25.81;35.67
32642;BME280;19323;56.072;9.698;2023-03-01T04:49:25;102304.66;;;25.80;35.67
32642;BME280;19323;56.072;9.698;2023-03-01T04:51:51;102307.31;;;25.80;35.82
32642;BME280;19323;56.072;9.698;2023-03-01T04:54:16;102308.28;;;25.79;35.77
32642;BME280;19323;56.072;9.698;2023-03-01T04:56:41;102308.28;;;25.79;35.66
32642;BME280;19323;56.072;9.698;2023-03-01T04:59:06;102306.59;;;25.78;35.68
32642;BME280;19323;56.072;9.698;2023-03-01T05:01:33;102305.88;;;25.76;35.68
32642;BME280;19323;56.072;9.698;2023-03-01T05:04:00;102310.34;;;25.76;36.11
32642;BME280;19323;56.072;9.698;2023-03-01T05:06:27;102309.50;;;25.75;35.76
32642;BME280;19323;56.072;9.698;2023-03-01T05:08:53;102310.50;;;25.74;35.72
32642;BME280;19323;56.072;9.698;2023-03-01T05:11:18;102311.34;;;25.75;35.95
32642;BME280;19323;56.072;9.698;2023-03-01T05:13:43;102315.88;;;25.74;35.82
32642;BME280;19323;56.072;9.698;2023-03-01T05:16:09;102307.81;;;25.74;36.13
32642;BME280;19323;56.072;9.698;2023-03-01T05:18:37;102300.88;;;25.72;35.98
32642;BME280;19323;56.072;9.698;2023-03-01T05:21:03;102300.72;;;25.73;35.97
32642;BME280;19323;56.072;9.698;2023-03-01T05:23:30;102300.72;;;25.73;36.22
32642;BME280;19323;56.072;9.698;2023-03-01T05:25:57;102300.88;;;25.72;36.13
32642;BME280;19323;56.072;9.698;2023-03-01T05:28:22;102307.09;;;25.72;36.13
32642;BME280;19323;56.072;9.698;2023-03-01T05:30:48;102299.16;;;25.70;36.14
32642;BME280;19323;56.072;9.698;2023-03-01T05:33:13;102299.16;;;25.70;35.90
32642;BME280;19323;56.072;9.698;2023-03-01T05:35:39;102299.16;;;25.70;36.14
32642;BME280;19323;56.072;9.698;2023-03-01T05:38:04;102303.78;;;25.68;35.76
32642;BME280;19323;56.072;9.698;2023-03-01T05:40:29;102298.41;;;25.68;36.14
32642;BME280;19323;56.072;9.698;2023-03-01T05:42:55;102294.88;;;25.68;35.83
32642;BME280;19323;56.072;9.698;2023-03-01T05:45:21;102300.25;;;25.68;35.84
32642;BME280;19323;56.072;9.698;2023-03-01T05:47:47;102295.72;;;25.68;35.91
32642;BME280;19323;56.072;9.698;2023-03-01T05:50:14;102296.72;;;25.67;35.81
32642;BME280;19323;56.072;9.698;2023-03-01T05:52:43;102293.16;;;25.67;36.19
32642;BME280;19323;56.072;9.698;2023-03-01T05:55:08;102296.84;;;25.66;36.11
32642;BME280;19323;56.072;9.698;2023-03-01T05:57:34;102295.00;;;25.66;36.17
32642;BME280;19323;56.072;9.698;2023-03-01T05:59:59;102301.94;;;25.69;36.15
32642;BME280;19323;56.072;9.698;2023-03-01T06:02:24;102301.94;;;25.69;36.30
32642;BME280;19323;56.072;9.698;2023-03-01T06:04:49;102302.09;;;25.67;36.50
32642;BME280;19323;56.072;9.698;2023-03-01T06:07:14;102299.41;;;25.67;36.25
32642;BME280;19323;56.072;9.698;2023-03-01T06:09:39;102299.25;;;25.69;36.48
32642;BME280;19323;56.072;9.698;2023-03-01T06:12:05;102304.78;;;25.67;36.50
32642;BME280;19323;56.072;9.698;2023-03-01T06:14:30;102308.41;;;25.66;36.63
32642;BME280;19323;56.072;9.698;2023-03-01T06:16:55;102320.88;;;25.67;36.59
32642;BME280;19323;56.072;9.698;2023-03-01T06:19:20;102312.94;;;25.66;36.57
32642;BME280;19323;56.072;9.698;2023-03-01T06:21:45;102316.59;;;25.65;36.59
32642;BME280;19323;56.072;9.698;2023-03-01T06:24:10;102317.47;;;25.65;36.72
32642;BME280;19323;56.072;9.698;2023-03-01T06:26:36;102321.09;;;25.64;36.72
32642;BME280;19323;56.072;9.698;2023-03-01T06:29:01;102318.41;;;25.64;36.74
32642;BME280;19323;56.072;9.698;2023-03-01T06:31:26;102314.03;;;25.63;37.08
32642;BME280;19323;56.072;9.698;2023-03-01T06:33:51;102319.50;;;25.62;37.13
32642;BME280;19323;56.072;9.698;2023-03-01T06:36:16;102327.56;;;25.62;36.92
32642;BME280;19323;56.072;9.698;2023-03-01T06:38:43;102318.56;;;25.63;37.25
32642;BME280;19323;56.072;9.698;2023-03-01T06:41:08;102321.25;;;25.63;37.36
32642;BME280;19323;56.072;9.698;2023-03-01T06:43:34;102323.03;;;25.62;36.93
32642;BME280;19323;56.072;9.698;2023-03-01T06:45:59;102324.03;;;25.61;37.08
32642;BME280;19323;56.072;9.698;2023-03-01T06:48:24;102322.31;;;25.60;36.98
32642;BME280;19323;56.072;9.698;2023-03-01T06:50:49;102322.31;;;25.60;37.01
32642;BME280;19323;56.072;9.698;2023-03-01T06:53:14;102318.94;;;25.58;37.15
32642;BME280;19323;56.072;9.698;2023-03-01T06:55:39;102327.81;;;25.59;37.07
32642;BME280;19323;56.072;9.698;2023-03-01T06:58:05;102324.28;;;25.58;37.04
32642;BME280;19323;56.072;9.698;2023-03-01T07:00:30;102329.78;;;25.57;37.12
32642;BME280;19323;56.072;9.698;2023-03-01T07:02:57;102323.56;;;25.56;37.12
32642;BME280;19323;56.072;9.698;2023-03-01T07:05:23;102328.03;;;25.56;37.22
32642;BME280;19323;56.072;9.698;2023-03-01T07:07:48;102322.69;;;25.56;37.21
32642;BME280;19323;56.072;9.698;2023-03-01T07:10:13;102325.38;;;25.56;37.16
32642;BME280;19323;56.072;9.698;2023-03-01T07:12:38;102332.56;;;25.55;37.12
32642;BME280;19323;56.072;9.698;2023-03-01T07:15:04;102336.09;;;25.56;36.92
32642;BME280;19323;56.072;9.698;2023-03-01T07:17:29;102320.13;;;25.54;36.91
32642;BME280;19323;56.072;9.698;2023-03-01T07:19:54;102330.88;;;25.54;36.94
32642;BME280;19323;56.072;9.698;2023-03-01T07:22:19;102326.47;;;25.53;37.12
32642;BME280;19323;56.072;9.698;2023-03-01T07:24:44;102322.81;;;25.54;37.04
32642;BME280;19323;56.072;9.698;2023-03-01T07:27:10;102321.09;;;25.53;36.86
32642;BME280;19323;56.072;9.698;2023-03-01T07:29:35;102330.00;;;25.54;37.20
32642;BME280;19323;56.072;9.698;2023-03-01T07:32:03;102322.94;;;25.53;37.21
32642;BME280;19323;56.072;9.698;2023-03-01T07:34:29;102330.13;;;25.52;36.91
32642;BME280;19323;56.072;9.698;2023-03-01T07:36:54;102315.84;;;25.52;37.05
32642;BME280;19323;56.072;9.698;2023-03-01T07:39:19;102311.34;;;25.52;37.02
32642;BME280;19323;56.072;9.698;2023-03-01T07:41:44;102317.56;;;25.53;36.83
32642;BME280;19323;56.072;9.698;2023-03-01T07:44:09;102321.22;;;25.52;36.87
32642;BME280;19323;56.072;9.698;2023-03-01T07:46:34;102321.22;;;25.52;36.75
32642;BME280;19323;56.072;9.698;2023-03-01T07:49:00;102318.66;;;25.50;37.05
32642;BME280;19323;56.072;9.698;2023-03-01T07:51:25;102326.56;;;25.52;36.83
32642;BME280;19323;56.072;9.698;2023-03-01T07:53:50;102327.44;;;25.52;36.97
32642;BME280;19323;56.072;9.698;2023-03-01T07:56:15;102322.19;;;25.51;36.91
32642;BME280;19323;56.072;9.698;2023-03-01T07:58:44;102323.03;;;25.51;36.95
32642;BME280;19323;56.072;9.698;2023-03-01T08:01:10;102330.25;;;25.51;36.91
32642;BME280;19323;56.072;9.698;2023-03-01T08:03:36;102329.41;;;25.50;36.95
32642;BME280;19323;56.072;9.698;2023-03-01T08:06:02;102322.31;;;25.49;36.80
32642;BME280;19323;56.072;9.698;2023-03-01T08:08:27;102318.66;;;25.50;36.73
32642;BME280;19323;56.072;9.698;2023-03-01T08:10:52;102315.25;;;25.48;36.91
32642;BME280;19323;56.072;9.698;2023-03-01T08:13:20;102319.78;;;25.47;36.95
32642;BME280;19323;56.072;9.698;2023-03-01T08:15:47;102321.56;;;25.47;36.60
32642;BME280;19323;56.072;9.698;2023-03-01T08:18:12;102328.66;;;25.48;36.81
32642;BME280;19323;56.072;9.698;2023-03-01T08:20:38;102326.00;;;25.48;36.65
32642;BME280;19323;56.072;9.698;2023-03-01T08:23:03;102331.34;;;25.48;36.92
32642;BME280;19323;56.072;9.698;2023-03-01T08:25:28;102328.56;;;25.49;36.90
32642;BME280;19323;56.072;9.698;2023-03-01T08:27:53;102320.50;;;25.49;37.01
32642;BME280;19323;56.072;9.698;2023-03-01T08:30:18;102317.09;;;25.47;36.81
32642;BME280;19323;56.072;9.698;2023-03-01T08:32:43;102321.34;;;25.50;36.63
32642;BME280;19323;56.072;9.698;2023-03-01T08:35:09;102321.47;;;25.48;36.72
32642;BME280;19323;56.072;9.698;2023-03-01T08:37:34;102315.25;;;25.48;36.65
32642;BME280;19323;56.072;9.698;2023-03-01T08:39:59;102318.91;;;25.47;36.77
32642;BME280;19323;56.072;9.698;2023-03-01T08:42:25;102319.78;;;25.47;36.65
32642;BME280;19323;56.072;9.698;2023-03-01T08:44:50;102318.03;;;25.46;36.86
32642;BME280;19323;56.072;9.698;2023-03-01T08:47:15;102318.91;;;25.47;36.74
32642;BME280;19323;56.072;9.698;2023-03-01T08:49:41;102317.94;;;25.48;36.59
32642;BME280;19323;56.072;9.698;2023-03-01T08:52:06;102334.88;;;25.48;36.84
32642;BME280;19323;56.072;9.698;2023-03-01T08:54:31;102332.09;;;25.50;36.48
32642;BME280;19323;56.072;9.698;2023-03-01T08:56:56;102336.59;;;25.49;36.66
32642;BME280;19323;56.072;9.698;2023-03-01T08:59:24;102342.81;;;25.50;36.76
32642;BME280;19323;56.072;9.698;2023-03-01T09:01:50;102336.47;;;25.51;36.48
32642;BME280;19323;56.072;9.698;2023-03-01T09:04:15;102337.31;;;25.52;36.52
32642;BME280;19323;56.072;9.698;2023-03-01T09:06:41;102341.72;;;25.53;36.54
32642;BME280;19323;56.072;9.698;2023-03-01T09:09:10;102338.19;;;25.52;36.52
32642;BME280;19323;56.072;9.698;2023-03-01T09:11:37;102343.56;;;25.52;36.59
32642;BME280;19323;56.072;9.698;2023-03-01T09:14:05;102335.50;;;25.52;36.73
32642;BME280;19323;56.072;9.698;2023-03-01T09:16:30;102335.63;;;25.51;36.65
32642;BME280;19323;56.072;9.698;2023-03-01T09:19:00;102336.47;;;25.51;36.50
32642;BME280;19323;56.072;9.698;2023-03-01T09:21:25;102339.16;;;25.51;36.70
32642;BME280;19323;56.072;9.698;2023-03-01T09:23:52;102329.88;;;25.44;36.39
32642;BME280;19323;56.072;9.698;2023-03-01T09:26:19;102349.13;;;25.49;36.90
32642;BME280;19323;56.072;9.698;2023-03-01T09:28:45;102339.28;;;25.49;36.83
32642;BME280;19323;56.072;9.698;2023-03-01T09:31:10;102334.03;;;25.48;36.75
32642;BME280;19323;56.072;9.698;2023-03-01T09:33:37;102324.16;;;25.48;36.82
32642;BME280;19323;56.072;9.698;2023-03-01T09:36:04;102333.03;;;25.49;36.58
32642;BME280;19323;56.072;9.698;2023-03-01T09:38:29;102332.31;;;25.47;36.73
32642;BME280;19323;56.072;9.698;2023-03-01T09:40:55;102261.31;;;25.06;36.81
32642;BME280;19323;56.072;9.698;2023-03-01T09:46:05;102354.50;;;25.49;36.87
32642;BME280;19323;56.072;9.698;2023-03-01T09:48:36;102355.38;;;25.49;36.63
32642;BME280;19323;56.072;9.698;2023-03-01T09:51:03;102335.72;;;25.38;36.97
32642;BME280;19323;56.072;9.698;2023-03-01T09:53:32;102342.81;;;25.50;36.87
32642;BME280;19323;56.072;9.698;2023-03-01T09:56:02;102344.50;;;25.51;36.55
32642;BME280;19323;56.072;9.698;2023-03-01T09:58:37;102350.59;;;25.53;36.67
32642;BME280;19323;56.072;9.698;2023-03-01T10:01:23;102344.50;;;25.51;36.57
32642;BME280;19323;56.072;9.698;2023-03-01T10:06:34;102354.03;;;25.55;36.65
32642;BME280;19323;56.072;9.698;2023-03-01T10:09:13;102354.03;;;25.55;36.69
32642;BME280;19323;56.072;9.698;2023-03-01T10:11:44;102352.94;;;25.58;36.93
32642;BME280;19323;56.072;9.698;2023-03-01T10:14:16;102358.19;;;25.59;36.44
32642;BME280;19323;56.072;9.698;2023-03-01T10:16:51;102355.50;;;25.59;36.72
32642;BME280;19323;56.072;9.698;2023-03-01T10:19:30;102358.06;;;25.61;36.54
32642;BME280;19323;56.072;9.698;2023-03-01T10:21:57;102356.97;;;25.63;36.58
32642;BME280;19323;56.072;9.698;2023-03-01T10:24:23;102354.19;;;25.65;36.52
32642;BME280;19323;56.072;9.698;2023-03-01T10:26:53;102363.81;;;25.67;36.43
32642;BME280;19323;56.072;9.698;2023-03-01T10:29:20;102354.66;;;25.70;36.56
32642;BME280;19323;56.072;9.698;2023-03-01T10:31:49;102349.19;;;25.72;36.40
32642;BME280;19323;56.072;9.698;2023-03-01T10:36:41;102355.97;;;25.76;36.45
32642;BME280;19323;56.072;9.698;2023-03-01T10:39:14;102363.91;;;25.77;36.23
32642;BME280;19323;56.072;9.698;2023-03-01T10:42:18;102356.72;;;25.78;36.23
32642;BME280;19323;56.072;9.698;2023-03-01T10:44:35;102359.41;;;25.78;36.56
32642;BME280;19323;56.072;9.698;2023-03-01T10:47:00;102357.72;;;25.77;36.58
32642;BME280;19323;56.072;9.698;2023-03-01T10:49:26;102351.59;;;25.75;36.34
32642;BME280;19323;56.072;9.698;2023-03-01T10:51:52;102356.97;;;25.75;36.44
32642;BME280;19323;56.072;9.698;2023-03-01T10:56:53;102351.84;;;25.72;36.75
32642;BME280;19323;56.072;9.698;2023-03-01T10:59:22;102349.19;;;25.72;36.83
32642;BME280;19323;56.072;9.698;2023-03-01T11:02:01;102346.59;;;25.70;36.86
32642;BME280;19323;56.072;9.698;2023-03-01T11:04:26;102335.97;;;25.68;36.63
32642;BME280;19323;56.072;9.698;2023-03-01T11:06:58;102336.97;;;25.67;36.77
32642;BME280;19323;56.072;9.698;2023-03-01T11:09:23;102336.09;;;25.67;36.83
32642;BME280;19323;56.072;9.698;2023-03-01T11:11:52;102337.94;;;25.66;36.89
32642;BME280;19323;56.072;9.698;2023-03-01T11:14:20;102332.56;;;25.66;36.73
32642;BME280;19323;56.072;9.698;2023-03-01T11:16:47;102335.25;;;25.66;36.89
32642;BME280;19323;56.072;9.698;2023-03-01T11:19:14;102329.88;;;25.66;36.87
32642;BME280;19323;56.072;9.698;2023-03-01T11:24:12;102328.03;;;25.67;36.82
32642;BME280;19323;56.072;9.698;2023-03-01T11:26:39;102328.19;;;25.65;37.07
32642;BME280;19323;56.072;9.698;2023-03-01T11:29:06;102330.72;;;25.67;36.92
32642;BME280;19323;56.072;9.698;2023-03-01T11:31:36;102325.38;;;25.67;37.04
32642;BME280;19323;56.072;9.698;2023-03-01T11:34:13;102327.94;;;25.68;36.93
32642;BME280;19323;56.072;9.698;2023-03-01T11:36:46;102324.28;;;25.69;37.12
32642;BME280;19323;56.072;9.698;2023-03-01T11:39:26;102337.72;;;25.69;36.89
32642;BME280;19323;56.072;9.698;2023-03-01T11:41:58;102335.03;;;25.69;37.19
32642;BME280;19323;56.072;9.698;2023-03-01T11:44:27;102341.13;;;25.72;36.94
32642;BME280;19323;56.072;9.698;2023-03-01T11:54:44;102338.19;;;25.75;37.29
32642;BME280;19323;56.072;9.698;2023-03-01T11:57:17;102330.03;;;25.76;37.16
32642;BME280;19323;56.072;9.698;2023-03-01T11:59:50;102326.34;;;25.77;37.32
32642;BME280;19323;56.072;9.698;2023-03-01T12:03:04;102328.91;;;25.79;37.19
32642;BME280;19323;56.072;9.698;2023-03-01T12:10:23;102320.59;;;25.82;36.98
32642;BME280;19323;56.072;9.698;2023-03-01T12:20:32;102307.91;;;25.84;37.02
32642;BME280;19323;56.072;9.698;2023-03-01T12:27:59;102305.84;;;25.87;37.02
32642;BME280;19323;56.072;9.698;2023-03-01T12:30:33;102311.97;;;25.89;37.01
32642;BME280;19323;56.072;9.698;2023-03-01T12:43:34;102290.13;;;25.94;37.00
32642;BME280;19323;56.072;9.698;2023-03-01T12:51:20;102279.00;;;25.99;36.88
32642;BME280;19323;56.072;9.698;2023-03-01T12:53:47;102270.84;;;26.00;36.99
32642;BME280;19323;56.072;9.698;2023-03-01T12:56:17;102259.09;;;26.01;37.34
32642;BME280;19323;56.072;9.698;2023-03-01T12:58:57;102263.53;;;26.02;37.27
32642;BME280;19323;56.072;9.698;2023-03-01T13:01:45;102257.88;;;26.05;37.21
32642;BME280;19323;56.072;9.698;2023-03-01T13:06:59;102262.03;;;26.09;37.27
32642;BME280;19323;56.072;9.698;2023-03-01T13:11:52;102260.78;;;26.14;36.78
32642;BME280;19323;56.072;9.698;2023-03-01T13:16:49;102256.72;;;26.19;37.24
32642;BME280;19323;56.072;9.698;2023-03-01T13:19:15;102261.75;;;26.24;37.13
32642;BME280;19323;56.072;9.698;2023-03-01T13:21:42;102255.13;;;26.28;37.04
32642;BME280;19323;56.072;9.698;2023-03-01T13:24:27;102252.19;;;26.31;37.09
32642;BME280;19323;56.072;9.698;2023-03-01T13:29:52;102250.69;;;26.38;36.70
32642;BME280;19323;56.072;9.698;2023-03-01T13:32:22;102241.41;;;26.42;36.68
32642;BME280;19323;56.072;9.698;2023-03-01T13:34:52;102243.81;;;26.45;36.67
32642;BME280;19323;56.072;9.698;2023-03-01T13:37:19;102240.88;;;26.48;36.84
32642;BME280;19323;56.072;9.698;2023-03-01T13:39:45;102229.88;;;26.51;36.62
32642;BME280;19323;56.072;9.698;2023-03-01T13:42:30;102238.53;;;26.55;36.57
32642;BME280;19323;56.072;9.698;2023-03-01T13:44:56;102234.75;;;26.58;36.69
32642;BME280;19323;56.072;9.698;2023-03-01T13:47:21;102229.97;;;26.61;36.84
32642;BME280;19323;56.072;9.698;2023-03-01T13:49:48;102218.13;;;26.64;36.48
32642;BME280;19323;56.072;9.698;2023-03-01T13:52:25;102225.91;;;26.67;36.75
32642;BME280;19323;56.072;9.698;2023-03-01T13:54:55;102229.19;;;26.70;36.79
32642;BME280;19323;56.072;9.698;2023-03-01T13:57:22;102233.44;;;26.73;36.57
32642;BME280;19323;56.072;9.698;2023-03-01T13:59:49;102221.56;;;26.76;36.46